Messwerte Biak

Temperatur

Temperatur
°C
1560621600 3.00 3.00
1560625200 4.00 4.00
1560628800 5.00 5.00
1560632400 6.00 6.00
1560636000 7.00 7.00
1560639600 8.00 8.00
1560643200 9.00 9.00
1560646800 10.00 10.00 29
1560650400 11.00 11.00 28
1560654000 12.00 12.00 28
1560657600 13.00 13.00 29
1560661200 14.00 14.00 28
1560664800 15.00 15.00 26
1560668400 16.00 16.00 26
1560672000 17.00 17.00
1560675600 18.00 18.00 27
1560679200 19.00 19.00 26
1560682800 20.00 20.00 26
1560686400 21.00 21.00 26
1560690000 22.00 22.00
1560693600 23.00 23.00 26
1560697200 0.00 0.00 25
1560700800 1.00 1.00 25
1560704400 2.00 2.00 25

Aktuellste Messwerte

Wettercharakter
Wetter: meist klar
Temperatur
25 °C
Feuchtigkeit
94 %
Wind
5 km/hWindrichtung: Nordwest
Luftdruck
1009 hPa
Messzeit: 17. Juni 2019, 2.00Datenquelle: METAR

Wind

Windrichtung Böen Mittelwind
° km/h km/h
1560621600 3.00 2.00 - 3.00
1560625200 4.00 3.00 - 4.00
1560628800 5.00 4.00 - 5.00
1560632400 6.00 5.00 - 6.00
1560636000 7.00 6.00 - 7.00
1560639600 8.00 7.00 - 8.00
1560643200 9.00 8.00 - 9.00
1560646800 10.00 9.00 - 10.00 270° 10
1560650400 11.00 10.00 - 11.00 290° 15
1560654000 12.00 11.00 - 12.00 270° 10
1560657600 13.00 12.00 - 13.00 260° 20
1560661200 14.00 13.00 - 14.00 310° 5
1560664800 15.00 14.00 - 15.00 30° 10
1560668400 16.00 15.00 - 16.00 330° 5
1560672000 17.00 16.00 - 17.00
1560675600 18.00 17.00 - 18.00 300° 5
1560679200 19.00 18.00 - 19.00 320° 5
1560682800 20.00 19.00 - 20.00 310° 10
1560686400 21.00 20.00 - 21.00 330° 5
1560690000 22.00 21.00 - 22.00
1560693600 23.00 22.00 - 23.00 320° 5
1560697200 0.00 23.00 - 0.00 310° 5
1560700800 1.00 0.00 - 1.00 320° 5
1560704400 2.00 1.00 - 2.00 320° 5

Ihre Wetterstation

Fehlt Ihre Wetterstation auf unserem Portal?

Schreiben Sie an network@meteonews.ch